createdAt,value
2022-12-26T00:01:37.127Z,11.79
2022-12-26T00:04:52.097Z,11.79
2022-12-26T00:06:56.139Z,11.84
2022-12-26T00:09:24.663Z,11.86
2022-12-26T00:11:53.264Z,11.88
2022-12-26T00:14:21.826Z,11.88
2022-12-26T00:16:50.529Z,11.86
2022-12-26T00:19:20.123Z,11.88
2022-12-26T00:21:48.704Z,11.86
2022-12-26T00:24:17.206Z,11.84
2022-12-26T00:26:45.821Z,11.79
2022-12-26T00:29:14.507Z,11.75
2022-12-26T00:31:43.089Z,11.71
2022-12-26T00:34:11.793Z,11.67
2022-12-26T00:36:41.428Z,11.62
2022-12-26T00:39:10.314Z,11.60
2022-12-26T00:41:38.805Z,11.56
2022-12-26T00:44:07.190Z,11.52
2022-12-26T00:46:35.732Z,11.52
2022-12-26T00:49:04.433Z,11.54
2022-12-26T00:51:33.004Z,11.61
2022-12-26T00:54:02.576Z,11.64
2022-12-26T00:56:30.796Z,11.66
2022-12-26T00:58:59.673Z,11.69
2022-12-26T01:01:30.823Z,11.73
2022-12-26T01:03:59.774Z,11.75
2022-12-26T01:06:28.016Z,11.76
2022-12-26T01:08:56.584Z,11.77
2022-12-26T01:11:40.831Z,11.78
2022-12-26T01:14:12.664Z,11.76
2022-12-26T01:16:42.713Z,11.77
2022-12-26T01:19:12.088Z,11.78
2022-12-26T01:21:40.895Z,11.79
2022-12-26T01:24:09.523Z,11.79
2022-12-26T01:26:39.081Z,11.79
2022-12-26T01:29:07.609Z,11.81
2022-12-26T01:31:36.189Z,11.80
2022-12-26T01:34:04.741Z,11.78
2022-12-26T01:36:33.263Z,11.78
2022-12-26T01:39:01.794Z,11.77
2022-12-26T01:41:32.133Z,11.75
2022-12-26T01:44:04.464Z,11.73
2022-12-26T01:46:39.223Z,11.73
2022-12-26T01:49:10.133Z,11.64
2022-12-26T01:51:44.172Z,11.70
2022-12-26T01:54:41.457Z,11.71
2022-12-26T01:57:10.541Z,11.72
2022-12-26T01:59:43.027Z,11.74
2022-12-26T02:02:12.223Z,11.75
2022-12-26T02:05:04.377Z,11.72
2022-12-26T02:07:34.981Z,11.71
2022-12-26T02:10:06.177Z,11.70
2022-12-26T02:12:38.900Z,11.67
2022-12-26T02:15:13.886Z,11.66
2022-12-26T02:17:43.340Z,11.64
2022-12-26T02:20:20.318Z,11.63
2022-12-26T02:23:33.551Z,11.61
2022-12-26T02:26:54.099Z,11.57
2022-12-26T02:30:06.708Z,11.52
2022-12-26T02:33:02.494Z,11.46
2022-12-26T02:35:50.038Z,11.41
2022-12-26T02:38:34.489Z,11.39
2022-12-26T02:41:21.283Z,11.39
2022-12-26T02:44:27.126Z,11.40
2022-12-26T02:47:06.404Z,11.38
2022-12-26T02:50:14.697Z,11.35
2022-12-26T02:53:13.118Z,11.30
2022-12-26T02:56:03.192Z,11.24
2022-12-26T02:58:57.563Z,11.18
2022-12-26T03:01:51.269Z,11.13
2022-12-26T03:04:41.212Z,11.25
2022-12-26T03:07:35.784Z,11.48
2022-12-26T03:10:32.814Z,11.69
2022-12-26T03:13:13.385Z,11.83
2022-12-26T03:16:07.506Z,11.82
2022-12-26T03:18:58.121Z,11.75
2022-12-26T03:21:31.325Z,11.69
2022-12-26T03:24:01.387Z,11.68
2022-12-26T03:26:43.765Z,11.65
2022-12-26T03:29:33.425Z,11.74
2022-12-26T03:32:04.000Z,11.82
2022-12-26T03:34:31.925Z,11.82
2022-12-26T03:37:24.675Z,11.79
2022-12-26T03:41:01.852Z,11.81
2022-12-26T03:44:12.675Z,11.81
2022-12-26T03:47:18.240Z,11.75
2022-12-26T03:50:08.927Z,11.66
2022-12-26T03:53:03.297Z,11.58
2022-12-26T03:55:58.199Z,11.52
2022-12-26T03:58:51.034Z,11.46
2022-12-26T04:01:41.320Z,11.39
2022-12-26T04:04:32.331Z,11.36
2022-12-26T04:07:24.968Z,11.33
2022-12-26T04:10:19.243Z,11.30
2022-12-26T04:13:08.565Z,11.26
2022-12-26T04:16:04.161Z,11.18
2022-12-26T04:18:55.796Z,11.11
2022-12-26T04:21:50.309Z,11.05
2022-12-26T04:24:42.404Z,11.03
2022-12-26T04:27:32.978Z,11.00
2022-12-26T04:30:20.424Z,10.96
2022-12-26T04:33:11.519Z,10.93
2022-12-26T04:36:06.873Z,10.88
2022-12-26T04:38:59.060Z,10.84
2022-12-26T04:41:47.789Z,10.87
2022-12-26T04:44:24.330Z,10.88
2022-12-26T04:46:56.551Z,10.91
2022-12-26T04:49:42.945Z,10.95
2022-12-26T04:52:14.571Z,10.99
2022-12-26T04:54:43.223Z,11.02
2022-12-26T04:57:12.758Z,11.02
2022-12-26T04:59:41.341Z,11.04
2022-12-26T05:02:29.138Z,11.03
2022-12-26T05:05:15.297Z,11.04
2022-12-26T05:08:01.563Z,11.05
2022-12-26T05:10:30.501Z,11.05
2022-12-26T05:12:58.691Z,11.07
2022-12-26T05:15:27.304Z,11.10
2022-12-26T05:18:14.361Z,11.13
2022-12-26T05:21:00.363Z,11.15
2022-12-26T05:23:47.304Z,11.17
2022-12-26T05:26:37.137Z,11.26
2022-12-26T05:29:06.039Z,11.40
2022-12-26T05:31:36.513Z,11.60
2022-12-26T05:34:07.103Z,12.00
2022-12-26T05:36:40.196Z,12.22
2022-12-26T05:39:10.249Z,12.32
2022-12-26T05:41:39.916Z,12.43
2022-12-26T05:44:09.172Z,12.51
2022-12-26T05:46:38.297Z,12.60
2022-12-26T05:49:08.244Z,12.65
2022-12-26T05:51:36.855Z,12.69
2022-12-26T05:54:05.890Z,12.69
2022-12-26T05:56:35.374Z,12.71
2022-12-26T05:59:03.879Z,12.72
2022-12-26T06:01:32.553Z,12.73
2022-12-26T06:04:01.644Z,12.77
2022-12-26T06:06:31.275Z,12.86
2022-12-26T06:08:59.866Z,12.93
2022-12-26T06:11:28.632Z,12.93
2022-12-26T06:13:57.396Z,12.96
2022-12-26T06:16:26.341Z,12.95
2022-12-26T06:18:56.372Z,12.94
2022-12-26T06:21:25.319Z,12.92
2022-12-26T06:23:54.972Z,12.93
2022-12-26T06:26:24.472Z,12.92
2022-12-26T06:28:53.114Z,12.95
2022-12-26T06:31:24.933Z,12.93
2022-12-26T06:33:58.107Z,12.94
2022-12-26T06:36:28.362Z,12.95
2022-12-26T06:39:01.078Z,12.94
2022-12-26T06:41:29.976Z,12.94
2022-12-26T06:43:58.652Z,12.95
2022-12-26T06:46:27.831Z,12.99
2022-12-26T06:48:56.571Z,13.02
2022-12-26T06:51:28.451Z,13.03
2022-12-26T06:54:00.566Z,13.05
2022-12-26T06:56:30.022Z,13.06
2022-12-26T06:59:00.661Z,13.08
2022-12-26T07:01:31.830Z,13.08
2022-12-26T07:04:00.986Z,13.08
2022-12-26T07:06:31.861Z,13.06
2022-12-26T07:09:04.782Z,13.03
2022-12-26T07:11:36.537Z,13.01
2022-12-26T07:14:05.664Z,13.02
2022-12-26T07:16:36.635Z,12.99
2022-12-26T07:19:05.881Z,12.98
2022-12-26T07:21:40.398Z,12.97
2022-12-26T07:24:17.421Z,12.96
2022-12-26T07:26:46.514Z,12.94
2022-12-26T07:29:16.089Z,12.92
2022-12-26T07:31:44.952Z,12.90
2022-12-26T07:34:13.644Z,12.89
2022-12-26T07:36:42.510Z,12.88
2022-12-26T07:39:15.136Z,12.88
2022-12-26T07:41:58.608Z,12.86
2022-12-26T07:44:28.428Z,12.84
2022-12-26T07:46:57.730Z,12.80
2022-12-26T07:49:26.340Z,12.74
2022-12-26T07:51:55.197Z,12.70
2022-12-26T07:54:26.612Z,12.67
2022-12-26T07:57:15.123Z,12.66
2022-12-26T07:59:44.778Z,12.66
2022-12-26T08:02:14.260Z,12.65
2022-12-26T08:04:43.400Z,12.65
2022-12-26T08:07:12.476Z,12.63
2022-12-26T08:09:44.680Z,12.62
2022-12-26T08:12:14.034Z,12.60
2022-12-26T08:14:42.859Z,12.57
2022-12-26T08:17:11.461Z,12.55
2022-12-26T08:19:41.335Z,12.54
2022-12-26T08:22:09.851Z,12.51
2022-12-26T08:24:38.782Z,12.52
2022-12-26T08:27:08.764Z,12.50
2022-12-26T08:29:37.511Z,12.48
2022-12-26T08:32:06.667Z,12.50
2022-12-26T08:34:35.997Z,12.49
2022-12-26T08:37:04.569Z,12.47
2022-12-26T08:39:33.165Z,12.49
2022-12-26T08:42:01.689Z,12.49
2022-12-26T08:44:31.253Z,12.46
2022-12-26T08:46:59.861Z,12.44
2022-12-26T08:49:28.394Z,12.43
2022-12-26T08:51:56.906Z,12.42
2022-12-26T08:54:25.467Z,12.43
2022-12-26T08:56:53.965Z,12.43
2022-12-26T08:59:22.579Z,12.42
2022-12-26T09:01:52.273Z,12.41
2022-12-26T09:04:20.860Z,12.40
2022-12-26T09:06:49.428Z,12.40
2022-12-26T09:09:18.258Z,12.39
2022-12-26T09:11:46.786Z,12.40
2022-12-26T09:14:15.336Z,12.40
2022-12-26T09:16:50.504Z,12.41
2022-12-26T09:19:22.811Z,12.37
2022-12-26T09:22:13.647Z,12.36
2022-12-26T09:24:41.921Z,12.36
2022-12-26T09:27:11.347Z,12.36
2022-12-26T09:29:40.159Z,12.36
2022-12-26T09:32:10.678Z,12.32
2022-12-26T09:34:41.294Z,12.31
2022-12-26T09:37:11.291Z,12.31
2022-12-26T09:39:40.194Z,12.30
2022-12-26T09:42:24.798Z,12.29
2022-12-26T09:45:05.386Z,12.28
2022-12-26T09:47:35.817Z,12.26
2022-12-26T09:50:14.164Z,12.26
2022-12-26T09:52:49.330Z,12.25
2022-12-26T09:55:41.940Z,12.25
2022-12-26T09:58:22.779Z,12.28
2022-12-26T10:00:56.443Z,12.29
2022-12-26T10:03:25.707Z,12.29
2022-12-26T10:06:16.946Z,12.30
2022-12-26T10:09:13.330Z,12.33
2022-12-26T10:12:02.149Z,12.31
2022-12-26T10:14:43.322Z,12.32
2022-12-26T10:17:24.730Z,12.33
2022-12-26T10:20:20.030Z,12.32
2022-12-26T10:23:29.297Z,12.33
2022-12-26T10:26:04.759Z,12.34
2022-12-26T10:28:40.142Z,12.34
2022-12-26T10:31:14.632Z,12.38
2022-12-26T10:33:50.327Z,12.41
2022-12-26T10:36:31.906Z,12.43
2022-12-26T10:39:04.405Z,12.46
2022-12-26T10:41:41.864Z,12.46
2022-12-26T10:44:12.597Z,12.48
2022-12-26T10:47:11.034Z,12.52
2022-12-26T10:49:40.476Z,12.53
2022-12-26T10:52:11.649Z,12.57
2022-12-26T10:54:42.239Z,12.58
2022-12-26T10:57:11.296Z,12.59
2022-12-26T10:59:45.599Z,12.57
2022-12-26T11:02:23.595Z,12.63
2022-12-26T11:05:27.341Z,12.62
2022-12-26T11:08:06.610Z,12.62
2022-12-26T11:10:36.916Z,12.62
2022-12-26T11:13:18.233Z,12.61
2022-12-26T11:15:52.307Z,12.57
2022-12-26T11:18:24.382Z,12.57
2022-12-26T11:20:52.682Z,12.57
2022-12-26T11:23:27.855Z,12.57
2022-12-26T11:26:00.313Z,12.55
2022-12-26T11:28:36.853Z,12.57
2022-12-26T11:31:08.822Z,12.62
2022-12-26T11:33:43.376Z,12.65
2022-12-26T11:36:20.387Z,12.69
2022-12-26T11:38:54.307Z,12.74
2022-12-26T11:41:40.285Z,12.75
2022-12-26T11:44:25.949Z,12.79
2022-12-26T11:47:00.120Z,12.81
2022-12-26T11:49:34.390Z,12.80
2022-12-26T11:52:25.212Z,12.85
2022-12-26T11:54:54.183Z,12.86
2022-12-26T11:57:29.739Z,12.85
2022-12-26T12:00:18.758Z,12.82
2022-12-26T12:02:47.858Z,12.78
2022-12-26T12:05:30.025Z,12.81
2022-12-26T12:08:23.876Z,12.81
2022-12-26T12:11:22.975Z,12.82
2022-12-26T12:14:14.563Z,12.84
2022-12-26T12:16:58.216Z,12.85
2022-12-26T12:19:44.424Z,12.85
2022-12-26T12:22:37.252Z,12.85
2022-12-26T12:25:27.022Z,12.86
2022-12-26T12:28:08.004Z,12.87
2022-12-26T12:30:46.779Z,12.90
2022-12-26T12:33:39.673Z,12.92
2022-12-26T12:36:11.694Z,12.91
2022-12-26T12:38:56.975Z,12.92
2022-12-26T12:41:46.913Z,12.90
2022-12-26T12:44:22.985Z,12.91
2022-12-26T12:47:05.872Z,12.91
2022-12-26T12:49:57.953Z,12.90
2022-12-26T12:52:44.371Z,12.90
2022-12-26T12:55:58.905Z,12.89
2022-12-26T12:58:38.395Z,12.91
2022-12-26T13:01:13.630Z,12.91
2022-12-26T13:03:50.882Z,12.89
2022-12-26T13:06:26.641Z,12.89
2022-12-26T13:08:59.580Z,12.87
2022-12-26T13:11:36.370Z,12.87
2022-12-26T13:14:13.035Z,12.86
2022-12-26T13:16:47.657Z,12.86
2022-12-26T13:19:23.317Z,12.86
2022-12-26T13:21:56.166Z,12.86
2022-12-26T13:24:32.335Z,12.85
2022-12-26T13:27:12.485Z,12.86
2022-12-26T13:29:44.319Z,12.85
2022-12-26T13:32:22.831Z,12.88
2022-12-26T13:34:55.295Z,12.88
2022-12-26T13:37:56.084Z,12.88
2022-12-26T13:40:29.950Z,12.88
2022-12-26T13:43:22.086Z,12.90
2022-12-26T13:45:57.178Z,12.92
2022-12-26T13:48:58.700Z,12.90
2022-12-26T13:51:50.840Z,12.90
2022-12-26T13:54:20.924Z,12.89
2022-12-26T13:57:37.454Z,12.85
2022-12-26T14:00:18.656Z,12.85
2022-12-26T14:03:52.207Z,12.81
2022-12-26T14:06:48.274Z,12.76
2022-12-26T14:09:50.691Z,12.71
2022-12-26T14:12:52.031Z,12.63
2022-12-26T14:15:37.125Z,12.61
2022-12-26T14:18:21.836Z,12.58
2022-12-26T14:21:00.380Z,12.55
2022-12-26T14:23:48.339Z,12.53
2022-12-26T14:26:32.245Z,12.55
2022-12-26T14:29:17.272Z,12.58
2022-12-26T14:32:00.156Z,12.58
2022-12-26T14:34:56.034Z,12.58
2022-12-26T14:37:35.606Z,12.57
2022-12-26T14:40:28.979Z,12.58
2022-12-26T14:43:34.876Z,12.56
2022-12-26T14:46:09.489Z,12.52
2022-12-26T14:48:58.201Z,12.46
2022-12-26T14:51:41.614Z,12.39
2022-12-26T14:54:50.936Z,12.34
2022-12-26T14:57:50.024Z,12.26
2022-12-26T15:00:34.873Z,12.19
2022-12-26T15:03:43.495Z,12.12
2022-12-26T15:07:12.918Z,12.05
2022-12-26T15:10:39.211Z,11.98
2022-12-26T15:13:58.247Z,11.94
2022-12-26T15:16:45.346Z,11.96
2022-12-26T15:19:52.725Z,11.93
2022-12-26T15:23:07.404Z,11.94
2022-12-26T15:26:10.564Z,11.92
2022-12-26T15:29:32.531Z,11.92
2022-12-26T15:32:11.162Z,11.92
2022-12-26T15:34:56.095Z,11.92
2022-12-26T15:37:40.771Z,11.92
2022-12-26T15:40:16.254Z,11.92
2022-12-26T15:43:02.931Z,11.92
2022-12-26T15:45:45.102Z,11.92
2022-12-26T15:48:39.130Z,11.87
2022-12-26T15:51:14.608Z,11.87
2022-12-26T15:54:01.447Z,11.85
2022-12-26T15:57:03.977Z,11.82
2022-12-26T16:00:12.710Z,11.77
2022-12-26T16:02:48.985Z,11.71
2022-12-26T16:06:00.126Z,11.61
2022-12-26T16:08:57.127Z,11.52
2022-12-26T16:11:27.281Z,11.49
2022-12-26T16:14:02.325Z,11.39
2022-12-26T16:16:35.088Z,11.32
2022-12-26T16:19:23.339Z,11.25
2022-12-26T16:22:13.324Z,11.20
2022-12-26T16:24:44.083Z,11.07
2022-12-26T16:27:18.768Z,10.87
2022-12-26T16:29:50.458Z,10.69
2022-12-26T16:32:22.225Z,10.55
2022-12-26T16:34:52.213Z,10.41
2022-12-26T16:37:25.164Z,10.29
2022-12-26T16:40:21.259Z,10.16
2022-12-26T16:43:02.663Z,10.04
2022-12-26T16:45:35.244Z,9.96
2022-12-26T16:48:07.837Z,9.90
2022-12-26T16:50:47.013Z,9.78
2022-12-26T16:53:17.593Z,9.69
2022-12-26T16:55:48.842Z,9.63
2022-12-26T16:58:25.228Z,9.57
2022-12-26T17:01:09.086Z,9.45
2022-12-26T17:03:48.407Z,9.26
2022-12-26T17:06:24.105Z,9.08
2022-12-26T17:08:54.140Z,8.94
2022-12-26T17:11:30.194Z,8.81
2022-12-26T17:13:59.702Z,8.75
2022-12-26T17:16:31.820Z,8.68
2022-12-26T17:19:13.007Z,8.61
2022-12-26T17:21:42.657Z,8.58
2022-12-26T17:24:31.907Z,8.52
2022-12-26T17:27:20.115Z,8.48
2022-12-26T17:29:58.316Z,8.47
2022-12-26T17:32:35.664Z,8.45
2022-12-26T17:35:15.281Z,8.43
2022-12-26T17:37:46.095Z,8.39
2022-12-26T17:40:27.808Z,8.36
2022-12-26T17:43:06.051Z,8.32
2022-12-26T17:45:34.628Z,8.30
2022-12-26T17:48:03.140Z,8.28
2022-12-26T17:50:35.384Z,8.24
2022-12-26T17:53:23.560Z,8.22
2022-12-26T17:55:52.869Z,8.22
2022-12-26T17:58:21.426Z,8.21
2022-12-26T18:00:50.738Z,8.20
2022-12-26T18:03:19.365Z,8.19
2022-12-26T18:05:48.406Z,8.19
2022-12-26T18:08:29.087Z,8.15
2022-12-26T18:10:57.792Z,8.15
2022-12-26T18:13:26.620Z,8.15
2022-12-26T18:15:57.537Z,8.15
2022-12-26T18:18:31.820Z,8.16
2022-12-26T18:21:00.461Z,8.18
2022-12-26T18:23:31.386Z,8.18
2022-12-26T18:26:02.554Z,8.20
2022-12-26T18:28:31.136Z,8.21
2022-12-26T18:30:59.734Z,8.22
2022-12-26T18:33:28.270Z,8.23
2022-12-26T18:35:56.916Z,8.23
2022-12-26T18:38:25.182Z,8.23
2022-12-26T18:40:54.752Z,8.21
2022-12-26T18:43:23.472Z,8.18
2022-12-26T18:45:53.098Z,8.16
2022-12-26T18:48:21.795Z,8.12
2022-12-26T18:50:50.306Z,8.08
2022-12-26T18:53:18.826Z,8.04
2022-12-26T18:55:47.347Z,8.03
2022-12-26T18:58:16.962Z,8.01
2022-12-26T19:00:45.506Z,8.02
2022-12-26T19:03:14.147Z,8.05
2022-12-26T19:05:42.658Z,8.09
2022-12-26T19:08:12.270Z,8.11
2022-12-26T19:10:47.242Z,8.09
2022-12-26T19:13:16.961Z,8.05
2022-12-26T19:15:47.667Z,8.02
2022-12-26T19:18:16.243Z,7.97
2022-12-26T19:20:45.523Z,7.96
2022-12-26T19:23:14.055Z,7.93
2022-12-26T19:25:42.558Z,7.89
2022-12-26T19:28:11.129Z,7.86
2022-12-26T19:30:40.739Z,7.84
2022-12-26T19:33:08.988Z,7.78
2022-12-26T19:35:37.185Z,7.77
2022-12-26T19:38:05.422Z,7.77
2022-12-26T19:40:33.951Z,7.77
2022-12-26T19:43:02.442Z,7.79
2022-12-26T19:45:31.014Z,7.81
2022-12-26T19:48:00.591Z,7.83
2022-12-26T19:50:29.139Z,7.87
2022-12-26T19:52:57.785Z,7.90
2022-12-26T19:55:26.367Z,7.94
2022-12-26T19:57:54.873Z,7.97
2022-12-26T20:00:23.493Z,8.00
2022-12-26T20:02:52.084Z,8.04
2022-12-26T20:05:21.715Z,8.07
2022-12-26T20:07:50.523Z,8.12
2022-12-26T20:10:19.069Z,8.15
2022-12-26T20:12:47.262Z,8.21
2022-12-26T20:15:15.842Z,8.25
2022-12-26T20:17:44.401Z,8.27
2022-12-26T20:20:12.978Z,8.27
2022-12-26T20:22:44.811Z,8.24
2022-12-26T20:25:16.394Z,8.21
2022-12-26T20:27:44.922Z,8.17
2022-12-26T20:30:13.750Z,8.14
2022-12-26T20:32:46.614Z,8.15
2022-12-26T20:35:15.523Z,8.13
2022-12-26T20:37:45.090Z,8.11
2022-12-26T20:40:13.806Z,8.09
2022-12-26T20:42:42.320Z,8.08
2022-12-26T20:45:11.699Z,8.07
2022-12-26T20:47:39.919Z,8.07
2022-12-26T20:50:09.554Z,8.05
2022-12-26T20:52:38.159Z,8.02
2022-12-26T20:55:09.067Z,7.98
2022-12-26T20:57:37.602Z,7.92
2022-12-26T21:00:08.230Z,7.82
2022-12-26T21:02:36.902Z,7.71
2022-12-26T21:05:06.186Z,7.59
2022-12-26T21:07:34.804Z,7.50
2022-12-26T21:10:03.318Z,7.44
2022-12-26T21:12:32.983Z,7.36
2022-12-26T21:15:01.620Z,7.29
2022-12-26T21:17:30.158Z,7.23
2022-12-26T21:19:58.701Z,7.16
2022-12-26T21:22:27.224Z,7.10
2022-12-26T21:24:55.730Z,7.05
2022-12-26T21:27:24.236Z,7.01
2022-12-26T21:29:53.820Z,6.94
2022-12-26T21:32:22.333Z,6.86
2022-12-26T21:34:50.843Z,6.77
2022-12-26T21:37:37.041Z,6.72
2022-12-26T21:40:06.594Z,6.67
2022-12-26T21:42:35.181Z,6.61
2022-12-26T21:45:05.788Z,6.57
2022-12-26T21:47:34.406Z,6.53
2022-12-26T21:50:02.932Z,6.48
2022-12-26T21:52:34.332Z,6.44
2022-12-26T21:55:20.537Z,6.37
2022-12-26T21:57:49.142Z,6.29
2022-12-26T22:00:19.338Z,6.23
2022-12-26T22:03:06.170Z,6.20
2022-12-26T22:05:37.615Z,6.13
2022-12-26T22:08:08.331Z,6.10
2022-12-26T22:10:56.287Z,6.07
2022-12-26T22:13:26.715Z,6.04
2022-12-26T22:16:04.158Z,6.01
2022-12-26T22:18:35.112Z,6.00
2022-12-26T22:21:06.799Z,5.96
2022-12-26T22:23:36.278Z,5.89
2022-12-26T22:26:05.081Z,5.85
2022-12-26T22:28:33.791Z,5.82
2022-12-26T22:31:03.503Z,5.76
2022-12-26T22:33:32.779Z,5.70
2022-12-26T22:36:07.524Z,5.63
2022-12-26T22:38:37.163Z,5.58
2022-12-26T22:41:06.531Z,5.53
2022-12-26T22:43:35.043Z,5.48
2022-12-26T22:46:05.098Z,5.48
2022-12-26T22:48:33.649Z,5.49
2022-12-26T22:51:02.399Z,5.49
2022-12-26T22:53:31.891Z,5.49
2022-12-26T22:56:03.356Z,5.48
2022-12-26T22:58:33.741Z,5.48
2022-12-26T23:01:02.512Z,5.46
2022-12-26T23:03:32.726Z,5.44
2022-12-26T23:06:01.817Z,5.41
2022-12-26T23:08:30.957Z,5.38
2022-12-26T23:11:00.769Z,5.37
2022-12-26T23:13:29.765Z,5.34
2022-12-26T23:16:07.316Z,5.29
2022-12-26T23:19:04.418Z,5.22
2022-12-26T23:21:42.448Z,5.14
2022-12-26T23:24:16.025Z,5.09
2022-12-26T23:26:46.930Z,5.01
2022-12-26T23:29:39.376Z,4.99
2022-12-26T23:32:09.326Z,4.96
2022-12-26T23:34:39.292Z,4.93
2022-12-26T23:37:07.825Z,4.91
2022-12-26T23:39:37.545Z,4.89
2022-12-26T23:42:06.313Z,4.86
2022-12-26T23:44:34.830Z,4.83
2022-12-26T23:47:03.759Z,4.79
2022-12-26T23:49:32.506Z,4.78
2022-12-26T23:52:02.824Z,4.75
2022-12-26T23:54:31.379Z,4.72
2022-12-26T23:57:00.102Z,4.68
2022-12-26T23:59:28.887Z,4.65
